Time;durP1;ratioP1;P1;durP2;ratioP2;P2;SDS_P1;SDS_P2;PMS_P1;PMS_P2;Temp;Humidity;BMP_temperature;BMP_pressure;BME280_temperature;BME280_humidity;BME280_pressure;Samples;Min_cycle;Max_cycle;Signal;HPM_P1;HPM_P2
2021/03/20 00:00:20;;;;;;;3.42;0.85;;;22.90;36.80;;;;;;20667245;28;20133;-22
2021/03/20 00:10:23;;;;;;;3.60;0.70;;;22.80;36.80;;;;;;20669829;28;20038;-20
2021/03/20 00:20:31;;;;;;;3.10;0.70;;;22.60;37.80;;;;;;20685992;28;20034;-22
2021/03/20 00:30:32;;;;;;;3.28;1.05;;;22.20;38.60;;;;;;20694539;28;20057;-24
2021/03/20 00:40:33;;;;;;;2.30;0.80;;;22.10;39.20;;;;;;20690365;28;20045;-24
2021/03/20 00:50:34;;;;;;;3.13;0.80;;;22.00;40.50;;;;;;20672139;28;20502;-21
2021/03/20 01:00:34;;;;;;;4.95;0.70;;;21.60;40.60;;;;;;20673370;28;20030;-22
2021/03/20 01:10:35;;;;;;;4.78;0.63;;;21.20;41.00;;;;;;20667359;28;20525;-21
2021/03/20 01:20:36;;;;;;;3.30;0.95;;;21.20;41.10;;;;;;20666862;28;20026;-22
2021/03/20 01:30:42;;;;;;;3.50;1.05;;;21.00;41.10;;;;;;20665673;28;20051;-22
2021/03/20 01:40:46;;;;;;;2.28;0.60;;;20.90;41.10;;;;;;20661641;28;20026;-22
2021/03/20 01:50:49;;;;;;;1.98;0.70;;;20.80;41.50;;;;;;20663234;28;20104;-22
2021/03/20 02:00:56;;;;;;;1.88;0.65;;;20.70;41.40;;;;;;20664106;28;20072;-23
2021/03/20 02:11:07;;;;;;;1.70;1.00;;;20.80;41.40;;;;;;20662950;28;20027;-23
2021/03/20 02:21:14;;;;;;;1.88;0.77;;;20.90;41.40;;;;;;20661150;28;20130;-24
2021/03/20 02:31:58;;;;;;;1.90;0.70;;;20.90;41.30;;;;;;20662201;28;20041;-24
2021/03/20 02:42:02;;;;;;;2.13;0.80;;;21.10;40.40;;;;;;20666169;28;20102;-26
2021/03/20 02:52:19;;;;;;;2.42;0.70;;;21.10;39.90;;;;;;20660659;28;20069;-25
2021/03/20 03:02:24;;;;;;;2.90;0.97;;;21.10;39.20;;;;;;20659363;28;20050;-26
2021/03/20 03:12:32;;;;;;;2.15;0.80;;;21.10;39.10;;;;;;20677056;28;20030;-23
2021/03/20 03:22:42;;;;;;;2.13;1.17;;;21.20;38.60;;;;;;20680127;28;20034;-21
2021/03/20 03:32:47;;;;;;;2.47;1.17;;;21.10;38.40;;;;;;20677606;28;20056;-21
2021/03/20 03:42:49;;;;;;;2.42;0.93;;;21.30;38.10;;;;;;20671676;28;20034;-23
2021/03/20 03:52:49;;;;;;;3.08;1.08;;;21.30;38.00;;;;;;20817098;23;20061;-21
2021/03/20 04:03:16;;;;;;;3.03;1.37;;;21.30;37.50;;;;;;20753910;28;20030;-22
2021/03/20 04:13:17;;;;;;;3.15;1.08;;;21.20;37.50;;;;;;20753142;28;20487;-21
2021/03/20 04:23:27;;;;;;;3.85;1.48;;;21.30;37.20;;;;;;20751786;28;20025;-19
2021/03/20 04:33:38;;;;;;;2.53;1.15;;;21.20;37.00;;;;;;20751484;28;20528;-20
2021/03/20 04:43:39;;;;;;;4.32;1.73;;;21.20;36.70;;;;;;20761700;28;20092;-21
2021/03/20 04:53:40;;;;;;;2.42;1.30;;;21.20;36.60;;;;;;20750171;28;20113;-19
2021/03/20 05:03:47;;;;;;;3.28;1.20;;;21.20;36.40;;;;;;20762998;28;20077;-19
2021/03/20 05:14:14;;;;;;;2.42;1.30;;;21.20;36.20;;;;;;20749133;28;20060;-22
2021/03/20 05:24:20;;;;;;;4.63;1.58;;;21.20;35.90;;;;;;20758065;28;20033;-19
2021/03/20 05:34:24;;;;;;;3.50;1.42;;;21.20;35.80;;;;;;20750251;28;20038;-22
2021/03/20 05:45:00;;;;;;;3.58;1.80;;;21.30;35.50;;;;;;20747445;28;20046;-20
2021/03/20 05:55:12;;;;;;;3.97;1.48;;;21.30;35.40;;;;;;20760843;28;20038;-20
2021/03/20 06:05:31;;;;;;;4.00;2.35;;;21.30;35.20;;;;;;20750079;28;20033;-21
2021/03/20 06:15:49;;;;;;;3.40;1.70;;;21.40;35.10;;;;;;20741887;28;20030;-22
2021/03/20 06:25:59;;;;;;;4.13;1.97;;;21.30;34.80;;;;;;20731349;28;20030;-19
2021/03/20 06:36:08;;;;;;;2.47;1.60;;;21.30;34.70;;;;;;20738700;28;20101;-21
2021/03/20 06:46:16;;;;;;;3.10;1.40;;;21.30;34.60;;;;;;20738097;28;20120;-22
2021/03/20 06:56:18;;;;;;;2.75;1.42;;;21.30;34.50;;;;;;20737079;28;20417;-21
2021/03/20 07:06:30;;;;;;;4.25;1.70;;;21.40;34.50;;;;;;20737007;28;20053;-20
2021/03/20 07:16:48;;;;;;;2.92;1.60;;;21.30;34.40;;;;;;20735962;28;20033;-22
2021/03/20 07:26:56;;;;;;;4.75;1.30;;;21.30;34.50;;;;;;20735759;28;20037;-22
2021/03/20 07:37:14;;;;;;;5.63;1.93;;;21.40;34.30;;;;;;20735436;28;20029;-21
2021/03/20 07:47:15;;;;;;;8.93;2.92;;;21.40;34.50;;;;;;20731278;28;20034;-21
2021/03/20 07:57:18;;;;;;;13.02;2.67;;;21.50;34.70;;;;;;20733894;28;20486;-20
2021/03/20 08:07:37;;;;;;;13.75;2.45;;;22.00;34.50;;;;;;20733593;28;20038;-21
2021/03/20 08:17:37;;;;;;;21.75;4.38;;;22.70;34.00;;;;;;20734298;28;20152;-20
2021/03/20 08:28:26;;;;;;;7.23;2.50;;;23.30;33.20;;;;;;20733208;28;20423;-19
2021/03/20 08:38:45;;;;;;;9.37;2.30;;;23.60;32.90;;;;;;20710694;28;20034;-21
2021/03/20 08:49:03;;;;;;;9.07;2.00;;;23.50;32.80;;;;;;20748249;28;20050;-20
2021/03/20 08:59:17;;;;;;;17.63;2.25;;;23.40;33.10;;;;;;20747731;28;20065;-20
2021/03/20 09:09:20;;;;;;;8.73;1.92;;;23.30;33.00;;;;;;20747700;28;20028;-21
2021/03/20 09:19:29;;;;;;;8.85;1.52;;;23.20;33.80;;;;;;20746884;28;20030;-21
2021/03/20 09:29:34;;;;;;;5.95;1.15;;;22.90;34.10;;;;;;20747417;28;20704;-19
2021/03/20 09:39:51;;;;;;;5.47;1.25;;;23.00;34.10;;;;;;20740474;28;20050;-19
2021/03/20 09:49:54;;;;;;;12.15;1.67;;;22.90;34.50;;;;;;20739424;28;20477;-19
2021/03/20 09:59:54;;;;;;;6.70;1.88;;;23.00;34.50;;;;;;20743388;28;20029;-21
2021/03/20 10:10:07;;;;;;;11.88;2.03;;;23.00;34.60;;;;;;20744046;28;20145;-19
2021/03/20 10:20:08;;;;;;;7.22;1.15;;;23.00;34.50;;;;;;20731762;22;20050;-20
2021/03/20 10:30:19;;;;;;;5.32;1.40;;;22.80;34.50;;;;;;20641686;28;20037;-21
2021/03/20 10:40:28;;;;;;;9.98;1.20;;;22.70;34.90;;;;;;20637357;28;20027;-24
2021/03/20 10:50:37;;;;;;;12.73;2.25;;;22.50;34.90;;;;;;20665831;28;20033;-21
2021/03/20 11:00:49;;;;;;;10.05;2.60;;;22.40;35.20;;;;;;20689094;28;20085;-22
2021/03/20 11:11:07;;;;;;;11.32;3.33;;;22.20;35.50;;;;;;20667627;28;20396;-24
2021/03/20 11:21:46;;;;;;;12.10;2.80;;;22.00;35.70;;;;;;20676591;28;20034;-25
2021/03/20 11:31:56;;;;;;;16.60;2.72;;;21.80;35.90;;;;;;20408848;29;20038;-20
2021/03/20 11:42:15;;;;;;;9.32;2.17;;;21.80;36.00;;;;;;20408434;29;20497;-21
2021/03/20 11:52:25;;;;;;;18.70;3.58;;;21.70;36.00;;;;;;20404789;29;20401;-23
2021/03/20 12:02:25;;;;;;;11.30;3.00;;;21.80;36.10;;;;;;20519370;28;20081;-23
2021/03/20 12:12:47;;;;;;;12.45;2.80;;;21.90;36.00;;;;;;20679918;28;20080;-23
2021/03/20 12:22:48;;;;;;;8.95;1.70;;;21.80;36.00;;;;;;20695584;28;20039;-26
2021/03/20 12:32:51;;;;;;;9.88;2.65;;;22.00;35.60;;;;;;20689884;28;20121;-22
2021/03/20 12:42:51;;;;;;;5.68;1.88;;;22.00;35.70;;;;;;20684599;28;20449;-24
2021/03/20 12:52:52;;;;;;;7.60;1.90;;;22.10;35.40;;;;;;20685283;28;20030;-20
2021/03/20 13:02:52;;;;;;;6.37;1.70;;;22.00;35.50;;;;;;20689135;28;20491;-24
2021/03/20 13:12:53;;;;;;;7.68;1.88;;;22.20;35.40;;;;;;20696179;28;20584;-23
2021/03/20 13:22:54;;;;;;;3.53;1.05;;;22.10;35.50;;;;;;20695768;28;20029;-23
2021/03/20 13:32:57;;;;;;;7.90;1.75;;;22.20;35.30;;;;;;20678043;28;20459;-21
2021/03/20 13:42:58;;;;;;;11.60;2.28;;;22.20;35.10;;;;;;20652665;28;20022;-23
2021/03/20 13:52:58;;;;;;;9.05;2.03;;;22.20;35.40;;;;;;20678703;28;20030;-18
2021/03/20 14:02:59;;;;;;;14.20;2.08;;;22.10;34.20;;;;;;20669401;28;20033;-21
2021/03/20 14:13:00;;;;;;;14.93;1.95;;;22.10;33.40;;;;;;20664712;28;20129;-22
2021/03/20 14:23:01;;;;;;;16.05;2.70;;;22.30;34.20;;;;;;20665586;28;20022;-20
2021/03/20 14:33:02;;;;;;;11.90;2.38;;;22.20;35.00;;;;;;20664693;28;20041;-25
2021/03/20 14:43:03;;;;;;;12.98;3.05;;;22.30;35.30;;;;;;20647932;28;20639;-25
2021/03/20 14:53:06;;;;;;;9.13;1.90;;;22.30;35.70;;;;;;20659420;28;20421;-24
2021/03/20 15:03:08;;;;;;;8.57;1.42;;;22.10;35.70;;;;;;20645878;28;20854;-23
2021/03/20 15:13:09;;;;;;;8.48;1.33;;;21.90;34.50;;;;;;20657123;28;20041;-26
2021/03/20 15:23:10;;;;;;;7.18;1.40;;;21.80;34.50;;;;;;20657737;28;20022;-26
2021/03/20 15:33:11;;;;;;;8.00;1.83;;;21.70;34.40;;;;;;20685900;28;20050;-24
2021/03/20 15:43:17;;;;;;;10.45;1.40;;;21.70;33.80;;;;;;20661260;28;20018;-24
2021/03/20 15:53:19;;;;;;;8.40;1.50;;;22.00;33.00;;;;;;20692754;28;20084;-25
2021/03/20 16:03:19;;;;;;;6.95;2.53;;;22.00;32.60;;;;;;20698399;28;20824;-24
2021/03/20 16:13:24;;;;;;;14.48;3.05;;;22.10;31.40;;;;;;20722044;23;20411;-19
2021/03/20 16:23:27;;;;;;;8.45;1.88;;;22.10;32.10;;;;;;20790241;28;20045;-21
2021/03/20 16:33:30;;;;;;;14.45;3.15;;;22.50;32.40;;;;;;20732837;28;20084;-19
2021/03/20 16:43:32;;;;;;;8.70;2.65;;;23.00;32.90;;;;;;20698903;28;20043;-20
2021/03/20 16:53:33;;;;;;;6.85;2.88;;;23.30;32.80;;;;;;20711842;28;20462;-19
2021/03/20 17:03:35;;;;;;;7.33;2.50;;;23.80;32.80;;;;;;20732246;28;20030;-19
2021/03/20 17:13:35;;;;;;;7.05;2.35;;;23.90;32.40;;;;;;20747996;28;20033;-19
2021/03/20 17:23:38;;;;;;;11.23;2.90;;;23.70;32.80;;;;;;20747588;28;20032;-20
2021/03/20 17:33:40;;;;;;;8.88;2.90;;;23.60;33.60;;;;;;20748256;28;20029;-20
2021/03/20 17:43:41;;;;;;;4.65;2.22;;;23.50;33.30;;;;;;20750918;28;20034;-22
2021/03/20 17:53:43;;;;;;;10.43;3.63;;;23.40;33.00;;;;;;20744441;28;20022;-21
2021/03/20 18:03:43;;;;;;;10.95;4.40;;;23.30;33.60;;;;;;20733996;28;20092;-21
2021/03/20 18:13:44;;;;;;;10.85;4.30;;;23.50;33.20;;;;;;20759069;28;20030;-19
2021/03/20 18:23:45;;;;;;;9.52;3.28;;;23.70;34.50;;;;;;20748327;28;20072;-19
2021/03/20 18:33:48;;;;;;;6.53;2.50;;;23.70;35.10;;;;;;20784197;28;20049;-21
2021/03/20 18:43:49;;;;;;;7.80;2.58;;;23.60;35.30;;;;;;20752974;28;20052;-19
2021/03/20 18:53:49;;;;;;;5.97;2.33;;;23.50;35.40;;;;;;20771161;28;20038;-20
2021/03/20 19:03:51;;;;;;;9.40;2.67;;;23.30;35.40;;;;;;20746826;28;20537;-20
2021/03/20 19:13:52;;;;;;;7.20;2.58;;;23.20;35.40;;;;;;20729247;28;20464;-18
2021/03/20 19:23:52;;;;;;;14.45;4.03;;;22.90;34.90;;;;;;20726208;28;20083;-20
2021/03/20 19:33:53;;;;;;;10.82;3.20;;;22.70;36.10;;;;;;20698795;28;20025;-22
2021/03/20 19:43:54;;;;;;;17.77;3.97;;;22.80;36.70;;;;;;20722021;28;20029;-19
2021/03/20 19:53:55;;;;;;;7.13;2.83;;;22.80;37.30;;;;;;20760598;28;20033;-19
2021/03/20 20:03:56;;;;;;;10.60;2.93;;;23.30;37.30;;;;;;20759862;28;20026;-19
2021/03/20 20:13:57;;;;;;;9.48;2.90;;;23.20;37.60;;;;;;20735328;28;20549;-21
2021/03/20 20:23:57;;;;;;;7.07;2.45;;;23.40;38.10;;;;;;20707336;28;20069;-19
2021/03/20 20:33:58;;;;;;;7.53;2.30;;;23.40;38.30;;;;;;20705016;28;20026;-20
2021/03/20 20:44:05;;;;;;;5.70;2.25;;;23.50;38.60;;;;;;20710198;28;20491;-22
2021/03/20 20:54:06;;;;;;;7.10;2.33;;;23.60;38.50;;;;;;20709688;28;20045;-19
2021/03/20 21:04:06;;;;;;;5.60;2.50;;;23.50;38.90;;;;;;20746099;28;20042;-20
2021/03/20 21:14:07;;;;;;;7.85;2.72;;;23.40;39.00;;;;;;20705010;28;20026;-18
2021/03/20 21:24:09;;;;;;;6.47;2.22;;;23.40;39.10;;;;;;20696225;28;20030;-20
2021/03/20 21:34:09;;;;;;;6.78;1.67;;;23.30;39.30;;;;;;20687575;28;20026;-20
2021/03/20 21:44:10;;;;;;;5.93;1.90;;;23.30;39.40;;;;;;20713918;28;20029;-18
2021/03/20 21:54:10;;;;;;;4.28;1.67;;;23.20;39.40;;;;;;20711105;28;20406;-20
2021/03/20 22:04:11;;;;;;;3.87;1.53;;;23.00;39.70;;;;;;20755910;28;20409;-20
2021/03/20 22:14:12;;;;;;;6.07;1.95;;;22.80;39.90;;;;;;20743519;28;20057;-19
2021/03/20 22:24:12;;;;;;;4.30;1.75;;;22.80;41.20;;;;;;20743543;28;20030;-21
2021/03/20 22:34:13;;;;;;;6.20;1.50;;;23.10;41.20;;;;;;20754519;28;20018;-20
2021/03/20 22:44:13;;;;;;;4.20;1.60;;;23.50;41.00;;;;;;20741302;28;20042;-19
2021/03/20 22:54:14;;;;;;;5.43;1.40;;;23.80;40.60;;;;;;20741823;28;20026;-19
2021/03/20 23:04:14;;;;;;;4.07;1.50;;;23.60;40.70;;;;;;20740348;28;20095;-20
2021/03/20 23:14:15;;;;;;;4.40;1.20;;;23.40;41.10;;;;;;20734175;23;20038;-20
2021/03/20 23:24:17;;;;;;;3.85;1.35;;;23.10;41.60;;;;;;20610787;28;20162;-19
2021/03/20 23:34:18;;;;;;;8.23;1.83;;;22.80;41.60;;;;;;20656662;28;20027;-25
2021/03/20 23:44:21;;;;;;;3.13;1.30;;;22.50;41.60;;;;;;20656029;28;20049;-21
2021/03/20 23:54:22;;;;;;;5.32;1.40;;;22.20;41.60;;;;;;20646106;28;20030;-23
